sensor_id;sensor_type;location;lat;lon;timestamp;P1;durP1;ratioP1;P2;durP2;ratioP2
78871;SDS011;68247;43.514;1.502;2023-11-21T00:01:26;9.17;;;2.30;;
78871;SDS011;68247;43.514;1.502;2023-11-21T00:03:51;11.90;;;2.13;;
78871;SDS011;68247;43.514;1.502;2023-11-21T00:06:19;11.25;;;2.42;;
78871;SDS011;68247;43.514;1.502;2023-11-21T00:08:45;13.73;;;2.50;;
78871;SDS011;68247;43.514;1.502;2023-11-21T00:11:10;13.10;;;3.17;;
78871;SDS011;68247;43.514;1.502;2023-11-21T00:13:36;9.33;;;2.30;;
78871;SDS011;68247;43.514;1.502;2023-11-21T00:16:01;11.63;;;2.00;;
78871;SDS011;68247;43.514;1.502;2023-11-21T00:18:27;9.05;;;1.90;;
78871;SDS011;68247;43.514;1.502;2023-11-21T00:20:52;10.23;;;1.90;;
78871;SDS011;68247;43.514;1.502;2023-11-21T00:23:17;12.37;;;2.03;;
78871;SDS011;68247;43.514;1.502;2023-11-21T00:25:43;10.30;;;1.97;;
78871;SDS011;68247;43.514;1.502;2023-11-21T00:28:09;11.73;;;2.20;;
78871;SDS011;68247;43.514;1.502;2023-11-21T00:30:34;10.63;;;2.13;;
78871;SDS011;68247;43.514;1.502;2023-11-21T00:32:59;13.67;;;2.37;;
78871;SDS011;68247;43.514;1.502;2023-11-21T00:35:25;14.80;;;2.10;;
78871;SDS011;68247;43.514;1.502;2023-11-21T00:37:50;8.87;;;1.97;;
78871;SDS011;68247;43.514;1.502;2023-11-21T00:40:16;11.27;;;2.33;;
78871;SDS011;68247;43.514;1.502;2023-11-21T00:42:46;9.68;;;2.03;;
78871;SDS011;68247;43.514;1.502;2023-11-21T00:45:11;12.00;;;2.50;;
78871;SDS011;68247;43.514;1.502;2023-11-21T00:47:37;11.05;;;1.98;;
78871;SDS011;68247;43.514;1.502;2023-11-21T00:50:03;13.43;;;2.40;;
78871;SDS011;68247;43.514;1.502;2023-11-21T00:52:31;7.70;;;2.00;;
78871;SDS011;68247;43.514;1.502;2023-11-21T00:54:56;9.63;;;2.37;;
78871;SDS011;68247;43.514;1.502;2023-11-21T00:57:24;9.85;;;2.08;;
78871;SDS011;68247;43.514;1.502;2023-11-21T00:59:49;8.00;;;1.80;;
78871;SDS011;68247;43.514;1.502;2023-11-21T01:02:15;12.63;;;2.35;;
78871;SDS011;68247;43.514;1.502;2023-11-21T01:04:40;13.60;;;2.23;;
78871;SDS011;68247;43.514;1.502;2023-11-21T01:07:05;11.60;;;1.77;;
78871;SDS011;68247;43.514;1.502;2023-11-21T01:09:31;9.70;;;1.67;;
78871;SDS011;68247;43.514;1.502;2023-11-21T01:11:56;6.23;;;1.60;;
78871;SDS011;68247;43.514;1.502;2023-11-21T01:14:22;11.15;;;1.65;;
78871;SDS011;68247;43.514;1.502;2023-11-21T01:16:47;12.50;;;1.83;;
78871;SDS011;68247;43.514;1.502;2023-11-21T01:19:14;9.95;;;1.80;;
78871;SDS011;68247;43.514;1.502;2023-11-21T01:21:39;11.32;;;1.90;;
78871;SDS011;68247;43.514;1.502;2023-11-21T01:24:05;9.30;;;1.93;;
78871;SDS011;68247;43.514;1.502;2023-11-21T01:26:32;12.93;;;2.08;;
78871;SDS011;68247;43.514;1.502;2023-11-21T01:28:58;12.20;;;2.58;;
78871;SDS011;68247;43.514;1.502;2023-11-21T01:31:24;9.13;;;1.80;;
78871;SDS011;68247;43.514;1.502;2023-11-21T01:33:52;9.65;;;1.80;;
78871;SDS011;68247;43.514;1.502;2023-11-21T01:36:17;12.83;;;1.97;;
78871;SDS011;68247;43.514;1.502;2023-11-21T01:38:43;11.07;;;1.70;;
78871;SDS011;68247;43.514;1.502;2023-11-21T01:41:08;8.05;;;1.77;;
78871;SDS011;68247;43.514;1.502;2023-11-21T01:43:36;10.43;;;1.93;;
78871;SDS011;68247;43.514;1.502;2023-11-21T01:46:02;8.20;;;1.83;;
78871;SDS011;68247;43.514;1.502;2023-11-21T01:48:27;10.07;;;2.10;;
78871;SDS011;68247;43.514;1.502;2023-11-21T01:50:53;7.60;;;1.70;;
78871;SDS011;68247;43.514;1.502;2023-11-21T01:53:19;8.40;;;1.50;;
78871;SDS011;68247;43.514;1.502;2023-11-21T01:55:45;12.43;;;1.83;;
78871;SDS011;68247;43.514;1.502;2023-11-21T01:58:11;7.25;;;1.50;;
78871;SDS011;68247;43.514;1.502;2023-11-21T02:00:37;5.18;;;1.35;;
78871;SDS011;68247;43.514;1.502;2023-11-21T02:03:03;7.70;;;1.30;;
78871;SDS011;68247;43.514;1.502;2023-11-21T02:05:29;8.50;;;1.57;;
78871;SDS011;68247;43.514;1.502;2023-11-21T02:07:54;8.87;;;1.80;;
78871;SDS011;68247;43.514;1.502;2023-11-21T02:10:21;6.72;;;1.70;;
78871;SDS011;68247;43.514;1.502;2023-11-21T02:12:50;8.02;;;1.50;;
78871;SDS011;68247;43.514;1.502;2023-11-21T02:15:15;8.90;;;1.77;;
78871;SDS011;68247;43.514;1.502;2023-11-21T02:17:51;6.07;;;1.30;;
78871;SDS011;68247;43.514;1.502;2023-11-21T02:20:17;6.43;;;1.60;;
78871;SDS011;68247;43.514;1.502;2023-11-21T02:25:14;9.55;;;1.85;;
78871;SDS011;68247;43.514;1.502;2023-11-21T02:27:40;12.70;;;1.80;;
78871;SDS011;68247;43.514;1.502;2023-11-21T02:30:05;7.60;;;1.37;;
78871;SDS011;68247;43.514;1.502;2023-11-21T02:32:33;8.40;;;1.48;;
78871;SDS011;68247;43.514;1.502;2023-11-21T02:34:59;9.65;;;1.83;;
78871;SDS011;68247;43.514;1.502;2023-11-21T02:37:27;4.93;;;1.33;;
78871;SDS011;68247;43.514;1.502;2023-11-21T02:39:53;16.27;;;2.00;;
78871;SDS011;68247;43.514;1.502;2023-11-21T02:42:18;6.43;;;1.27;;
78871;SDS011;68247;43.514;1.502;2023-11-21T02:44:44;7.20;;;1.57;;
78871;SDS011;68247;43.514;1.502;2023-11-21T02:47:09;11.48;;;1.80;;
78871;SDS011;68247;43.514;1.502;2023-11-21T02:49:35;6.23;;;1.60;;
78871;SDS011;68247;43.514;1.502;2023-11-21T02:52:00;7.73;;;2.03;;
78871;SDS011;68247;43.514;1.502;2023-11-21T02:54:26;11.45;;;1.52;;
78871;SDS011;68247;43.514;1.502;2023-11-21T02:56:52;10.80;;;1.70;;
78871;SDS011;68247;43.514;1.502;2023-11-21T02:59:17;7.18;;;1.70;;
78871;SDS011;68247;43.514;1.502;2023-11-21T03:01:44;9.02;;;1.60;;
78871;SDS011;68247;43.514;1.502;2023-11-21T03:04:10;11.90;;;1.80;;
78871;SDS011;68247;43.514;1.502;2023-11-21T03:06:35;7.25;;;1.40;;
78871;SDS011;68247;43.514;1.502;2023-11-21T03:09:01;5.77;;;1.60;;
78871;SDS011;68247;43.514;1.502;2023-11-21T03:11:26;11.63;;;1.70;;
78871;SDS011;68247;43.514;1.502;2023-11-21T03:13:52;7.97;;;1.73;;
78871;SDS011;68247;43.514;1.502;2023-11-21T03:16:18;6.15;;;2.22;;
78871;SDS011;68247;43.514;1.502;2023-11-21T03:18:44;9.43;;;1.60;;
78871;SDS011;68247;43.514;1.502;2023-11-21T03:21:09;8.82;;;1.80;;
78871;SDS011;68247;43.514;1.502;2023-11-21T03:23:35;6.93;;;1.93;;
78871;SDS011;68247;43.514;1.502;2023-11-21T03:26:01;6.82;;;1.52;;
78871;SDS011;68247;43.514;1.502;2023-11-21T03:28:27;10.63;;;1.80;;
78871;SDS011;68247;43.514;1.502;2023-11-21T03:30:53;9.70;;;1.70;;
78871;SDS011;68247;43.514;1.502;2023-11-21T03:33:18;8.27;;;1.60;;
78871;SDS011;68247;43.514;1.502;2023-11-21T03:35:44;8.93;;;2.03;;
78871;SDS011;68247;43.514;1.502;2023-11-21T03:38:09;9.20;;;1.50;;
78871;SDS011;68247;43.514;1.502;2023-11-21T03:40:35;8.73;;;2.25;;
78871;SDS011;68247;43.514;1.502;2023-11-21T03:43:00;5.30;;;1.80;;
78871;SDS011;68247;43.514;1.502;2023-11-21T03:45:26;6.97;;;1.90;;
78871;SDS011;68247;43.514;1.502;2023-11-21T03:47:51;9.57;;;1.90;;
78871;SDS011;68247;43.514;1.502;2023-11-21T03:50:17;14.35;;;1.80;;
78871;SDS011;68247;43.514;1.502;2023-11-21T03:52:42;7.87;;;1.50;;
78871;SDS011;68247;43.514;1.502;2023-11-21T03:55:08;7.87;;;1.70;;
78871;SDS011;68247;43.514;1.502;2023-11-21T03:57:33;8.87;;;1.60;;
78871;SDS011;68247;43.514;1.502;2023-11-21T03:59:59;7.97;;;1.73;;
78871;SDS011;68247;43.514;1.502;2023-11-21T04:02:24;11.90;;;1.70;;
78871;SDS011;68247;43.514;1.502;2023-11-21T04:04:51;9.35;;;1.88;;
78871;SDS011;68247;43.514;1.502;2023-11-21T04:07:16;16.57;;;2.23;;
78871;SDS011;68247;43.514;1.502;2023-11-21T04:09:42;7.72;;;1.52;;
78871;SDS011;68247;43.514;1.502;2023-11-21T04:12:08;12.27;;;2.90;;
78871;SDS011;68247;43.514;1.502;2023-11-21T04:14:36;7.50;;;1.52;;
78871;SDS011;68247;43.514;1.502;2023-11-21T04:17:02;7.90;;;2.17;;
78871;SDS011;68247;43.514;1.502;2023-11-21T04:19:29;9.70;;;1.80;;
78871;SDS011;68247;43.514;1.502;2023-11-21T04:21:54;10.63;;;1.67;;
78871;SDS011;68247;43.514;1.502;2023-11-21T04:24:20;7.28;;;1.55;;
78871;SDS011;68247;43.514;1.502;2023-11-21T04:26:45;7.33;;;1.70;;
78871;SDS011;68247;43.514;1.502;2023-11-21T04:29:10;8.87;;;1.57;;
78871;SDS011;68247;43.514;1.502;2023-11-21T04:31:36;9.13;;;1.50;;
78871;SDS011;68247;43.514;1.502;2023-11-21T04:34:02;8.68;;;1.48;;
78871;SDS011;68247;43.514;1.502;2023-11-21T04:36:29;11.23;;;1.60;;
78871;SDS011;68247;43.514;1.502;2023-11-21T04:38:55;10.93;;;1.52;;
78871;SDS011;68247;43.514;1.502;2023-11-21T04:41:21;14.27;;;1.70;;
78871;SDS011;68247;43.514;1.502;2023-11-21T04:43:46;7.43;;;1.43;;
78871;SDS011;68247;43.514;1.502;2023-11-21T04:46:12;7.93;;;1.77;;
78871;SDS011;68247;43.514;1.502;2023-11-21T04:48:37;8.13;;;1.60;;
78871;SDS011;68247;43.514;1.502;2023-11-21T04:51:03;7.28;;;1.45;;
78871;SDS011;68247;43.514;1.502;2023-11-21T04:53:29;14.80;;;1.60;;
78871;SDS011;68247;43.514;1.502;2023-11-21T04:55:55;9.10;;;1.57;;
78871;SDS011;68247;43.514;1.502;2023-11-21T04:58:20;12.37;;;1.90;;
78871;SDS011;68247;43.514;1.502;2023-11-21T05:00:46;6.38;;;1.73;;
78871;SDS011;68247;43.514;1.502;2023-11-21T05:03:11;8.97;;;1.33;;
78871;SDS011;68247;43.514;1.502;2023-11-21T05:05:37;9.33;;;1.60;;
78871;SDS011;68247;43.514;1.502;2023-11-21T05:08:02;8.63;;;1.50;;
78871;SDS011;68247;43.514;1.502;2023-11-21T05:10:28;5.50;;;1.30;;
78871;SDS011;68247;43.514;1.502;2023-11-21T05:12:55;10.90;;;1.40;;
78871;SDS011;68247;43.514;1.502;2023-11-21T05:15:20;9.93;;;1.50;;
78871;SDS011;68247;43.514;1.502;2023-11-21T05:17:46;6.60;;;1.15;;
78871;SDS011;68247;43.514;1.502;2023-11-21T05:20:15;9.63;;;1.50;;
78871;SDS011;68247;43.514;1.502;2023-11-21T05:22:46;8.43;;;1.48;;
78871;SDS011;68247;43.514;1.502;2023-11-21T05:25:13;9.00;;;1.30;;
78871;SDS011;68247;43.514;1.502;2023-11-21T05:27:39;7.22;;;1.30;;
78871;SDS011;68247;43.514;1.502;2023-11-21T05:30:04;8.97;;;1.50;;
78871;SDS011;68247;43.514;1.502;2023-11-21T05:32:31;7.47;;;1.40;;
78871;SDS011;68247;43.514;1.502;2023-11-21T05:34:56;11.27;;;1.90;;
78871;SDS011;68247;43.514;1.502;2023-11-21T05:37:22;6.57;;;1.30;;
78871;SDS011;68247;43.514;1.502;2023-11-21T05:39:48;5.65;;;1.20;;
78871;SDS011;68247;43.514;1.502;2023-11-21T05:42:14;5.90;;;1.60;;
78871;SDS011;68247;43.514;1.502;2023-11-21T05:44:41;4.57;;;0.70;;
78871;SDS011;68247;43.514;1.502;2023-11-21T05:47:07;8.95;;;1.25;;
78871;SDS011;68247;43.514;1.502;2023-11-21T05:49:32;8.73;;;1.25;;
78871;SDS011;68247;43.514;1.502;2023-11-21T05:51:58;5.85;;;1.45;;
78871;SDS011;68247;43.514;1.502;2023-11-21T05:54:24;5.97;;;1.10;;
78871;SDS011;68247;43.514;1.502;2023-11-21T05:56:50;6.90;;;1.08;;
78871;SDS011;68247;43.514;1.502;2023-11-21T05:59:16;7.97;;;1.20;;
78871;SDS011;68247;43.514;1.502;2023-11-21T06:01:41;7.40;;;1.30;;
78871;SDS011;68247;43.514;1.502;2023-11-21T06:04:06;5.57;;;1.20;;
78871;SDS011;68247;43.514;1.502;2023-11-21T06:06:35;6.55;;;1.17;;
78871;SDS011;68247;43.514;1.502;2023-11-21T06:09:01;6.90;;;1.10;;
78871;SDS011;68247;43.514;1.502;2023-11-21T06:11:27;6.70;;;1.55;;
78871;SDS011;68247;43.514;1.502;2023-11-21T06:13:52;5.38;;;1.38;;
78871;SDS011;68247;43.514;1.502;2023-11-21T06:16:20;7.13;;;1.60;;
78871;SDS011;68247;43.514;1.502;2023-11-21T06:18:46;8.75;;;1.38;;
78871;SDS011;68247;43.514;1.502;2023-11-21T06:21:11;8.73;;;1.20;;
78871;SDS011;68247;43.514;1.502;2023-11-21T06:23:37;11.07;;;1.57;;
78871;SDS011;68247;43.514;1.502;2023-11-21T06:26:03;6.60;;;1.30;;
78871;SDS011;68247;43.514;1.502;2023-11-21T06:28:29;7.45;;;1.20;;
78871;SDS011;68247;43.514;1.502;2023-11-21T06:30:55;10.40;;;1.80;;
78871;SDS011;68247;43.514;1.502;2023-11-21T06:33:22;7.53;;;1.25;;
78871;SDS011;68247;43.514;1.502;2023-11-21T06:35:48;10.07;;;1.73;;
78871;SDS011;68247;43.514;1.502;2023-11-21T06:38:14;7.28;;;1.63;;
78871;SDS011;68247;43.514;1.502;2023-11-21T06:40:40;7.37;;;2.03;;
78871;SDS011;68247;43.514;1.502;2023-11-21T06:43:05;5.50;;;1.15;;
78871;SDS011;68247;43.514;1.502;2023-11-21T06:45:32;7.68;;;1.40;;
78871;SDS011;68247;43.514;1.502;2023-11-21T06:47:59;3.80;;;1.10;;
78871;SDS011;68247;43.514;1.502;2023-11-21T06:50:24;6.05;;;1.10;;
78871;SDS011;68247;43.514;1.502;2023-11-21T06:52:50;8.03;;;1.33;;
78871;SDS011;68247;43.514;1.502;2023-11-21T06:55:15;4.33;;;1.10;;
78871;SDS011;68247;43.514;1.502;2023-11-21T06:57:41;6.82;;;1.30;;
78871;SDS011;68247;43.514;1.502;2023-11-21T07:00:06;6.93;;;1.50;;
78871;SDS011;68247;43.514;1.502;2023-11-21T07:02:34;5.38;;;1.40;;
78871;SDS011;68247;43.514;1.502;2023-11-21T07:04:59;6.00;;;1.57;;
78871;SDS011;68247;43.514;1.502;2023-11-21T07:07:25;11.33;;;1.70;;
78871;SDS011;68247;43.514;1.502;2023-11-21T07:09:50;9.27;;;1.90;;
78871;SDS011;68247;43.514;1.502;2023-11-21T07:12:17;5.10;;;1.63;;
78871;SDS011;68247;43.514;1.502;2023-11-21T07:14:42;5.22;;;1.38;;
78871;SDS011;68247;43.514;1.502;2023-11-21T07:17:10;8.07;;;1.63;;
78871;SDS011;68247;43.514;1.502;2023-11-21T07:19:37;7.38;;;1.30;;
78871;SDS011;68247;43.514;1.502;2023-11-21T07:22:03;4.57;;;1.20;;
78871;SDS011;68247;43.514;1.502;2023-11-21T07:24:28;4.38;;;1.38;;
78871;SDS011;68247;43.514;1.502;2023-11-21T07:26:53;5.37;;;1.37;;
78871;SDS011;68247;43.514;1.502;2023-11-21T07:29:21;4.97;;;1.40;;
78871;SDS011;68247;43.514;1.502;2023-11-21T07:31:48;5.88;;;1.35;;
78871;SDS011;68247;43.514;1.502;2023-11-21T07:34:13;6.17;;;1.20;;
78871;SDS011;68247;43.514;1.502;2023-11-21T07:36:38;8.50;;;1.40;;
78871;SDS011;68247;43.514;1.502;2023-11-21T07:39:04;7.47;;;1.70;;
78871;SDS011;68247;43.514;1.502;2023-11-21T07:41:31;5.90;;;1.75;;
78871;SDS011;68247;43.514;1.502;2023-11-21T07:43:57;7.10;;;1.83;;
78871;SDS011;68247;43.514;1.502;2023-11-21T07:46:23;6.93;;;1.50;;
78871;SDS011;68247;43.514;1.502;2023-11-21T07:48:49;6.88;;;1.65;;
78871;SDS011;68247;43.514;1.502;2023-11-21T07:51:14;8.03;;;2.07;;
78871;SDS011;68247;43.514;1.502;2023-11-21T07:53:39;9.03;;;1.90;;
78871;SDS011;68247;43.514;1.502;2023-11-21T07:56:06;6.87;;;1.70;;
78871;SDS011;68247;43.514;1.502;2023-11-21T07:58:35;6.57;;;1.60;;
78871;SDS011;68247;43.514;1.502;2023-11-21T08:01:01;5.88;;;1.48;;
78871;SDS011;68247;43.514;1.502;2023-11-21T08:03:27;4.93;;;1.60;;
78871;SDS011;68247;43.514;1.502;2023-11-21T08:05:55;5.10;;;1.60;;
78871;SDS011;68247;43.514;1.502;2023-11-21T08:08:21;6.88;;;1.70;;
78871;SDS011;68247;43.514;1.502;2023-11-21T08:10:46;6.32;;;1.30;;
78871;SDS011;68247;43.514;1.502;2023-11-21T08:13:13;4.97;;;1.65;;
78871;SDS011;68247;43.514;1.502;2023-11-21T08:15:39;5.38;;;1.65;;
78871;SDS011;68247;43.514;1.502;2023-11-21T08:18:05;5.57;;;1.58;;
78871;SDS011;68247;43.514;1.502;2023-11-21T08:20:32;9.77;;;2.83;;
78871;SDS011;68247;43.514;1.502;2023-11-21T08:22:59;7.07;;;2.38;;
78871;SDS011;68247;43.514;1.502;2023-11-21T08:25:25;5.80;;;1.97;;
78871;SDS011;68247;43.514;1.502;2023-11-21T08:27:52;4.95;;;1.85;;
78871;SDS011;68247;43.514;1.502;2023-11-21T08:30:17;6.43;;;1.60;;
78871;SDS011;68247;43.514;1.502;2023-11-21T08:32:44;7.03;;;2.13;;
78871;SDS011;68247;43.514;1.502;2023-11-21T08:35:10;7.20;;;3.00;;
78871;SDS011;68247;43.514;1.502;2023-11-21T08:37:37;7.90;;;2.25;;
78871;SDS011;68247;43.514;1.502;2023-11-21T08:40:04;5.25;;;1.80;;
78871;SDS011;68247;43.514;1.502;2023-11-21T08:42:34;5.72;;;2.00;;
78871;SDS011;68247;43.514;1.502;2023-11-21T08:45:00;7.10;;;2.70;;
78871;SDS011;68247;43.514;1.502;2023-11-21T08:47:25;5.97;;;2.47;;
78871;SDS011;68247;43.514;1.502;2023-11-21T08:49:51;8.82;;;2.78;;
78871;SDS011;68247;43.514;1.502;2023-11-21T08:52:19;6.40;;;2.50;;
78871;SDS011;68247;43.514;1.502;2023-11-21T08:54:49;9.82;;;2.72;;
78871;SDS011;68247;43.514;1.502;2023-11-21T08:57:21;7.10;;;2.50;;
78871;SDS011;68247;43.514;1.502;2023-11-21T08:59:47;7.78;;;2.30;;
78871;SDS011;68247;43.514;1.502;2023-11-21T09:02:12;4.72;;;2.00;;
78871;SDS011;68247;43.514;1.502;2023-11-21T09:04:38;5.70;;;2.10;;
78871;SDS011;68247;43.514;1.502;2023-11-21T09:07:03;7.70;;;2.20;;
78871;SDS011;68247;43.514;1.502;2023-11-21T09:09:28;4.77;;;1.90;;
78871;SDS011;68247;43.514;1.502;2023-11-21T09:11:55;8.35;;;2.20;;
78871;SDS011;68247;43.514;1.502;2023-11-21T09:14:20;5.33;;;1.80;;
78871;SDS011;68247;43.514;1.502;2023-11-21T09:16:45;4.33;;;1.33;;
78871;SDS011;68247;43.514;1.502;2023-11-21T09:19:11;6.43;;;1.65;;
78871;SDS011;68247;43.514;1.502;2023-11-21T09:21:39;5.68;;;1.88;;
78871;SDS011;68247;43.514;1.502;2023-11-21T09:24:04;6.53;;;1.70;;
78871;SDS011;68247;43.514;1.502;2023-11-21T09:26:30;4.68;;;1.70;;
78871;SDS011;68247;43.514;1.502;2023-11-21T09:28:55;5.87;;;2.07;;
78871;SDS011;68247;43.514;1.502;2023-11-21T09:31:21;5.50;;;2.40;;
78871;SDS011;68247;43.514;1.502;2023-11-21T09:33:48;6.07;;;2.13;;
78871;SDS011;68247;43.514;1.502;2023-11-21T09:36:14;5.72;;;2.10;;
78871;SDS011;68247;43.514;1.502;2023-11-21T09:38:39;5.47;;;1.97;;
78871;SDS011;68247;43.514;1.502;2023-11-21T09:41:07;5.93;;;1.80;;
78871;SDS011;68247;43.514;1.502;2023-11-21T09:43:42;4.60;;;2.10;;
78871;SDS011;68247;43.514;1.502;2023-11-21T09:46:10;5.53;;;2.10;;
78871;SDS011;68247;43.514;1.502;2023-11-21T09:48:38;4.35;;;1.80;;
78871;SDS011;68247;43.514;1.502;2023-11-21T09:51:04;4.80;;;1.45;;
78871;SDS011;68247;43.514;1.502;2023-11-21T09:53:30;4.13;;;1.70;;
78871;SDS011;68247;43.514;1.502;2023-11-21T09:55:58;5.83;;;1.57;;
78871;SDS011;68247;43.514;1.502;2023-11-21T09:58:25;3.38;;;1.77;;
78871;SDS011;68247;43.514;1.502;2023-11-21T10:00:55;5.28;;;2.17;;
78871;SDS011;68247;43.514;1.502;2023-11-21T10:03:22;5.60;;;2.03;;
78871;SDS011;68247;43.514;1.502;2023-11-21T10:05:48;5.73;;;2.23;;
78871;SDS011;68247;43.514;1.502;2023-11-21T10:08:15;6.03;;;2.33;;
78871;SDS011;68247;43.514;1.502;2023-11-21T10:10:45;6.90;;;2.10;;
78871;SDS011;68247;43.514;1.502;2023-11-21T10:13:13;5.95;;;2.22;;
78871;SDS011;68247;43.514;1.502;2023-11-21T10:15:41;6.03;;;2.00;;
78871;SDS011;68247;43.514;1.502;2023-11-21T10:18:12;6.18;;;1.70;;
78871;SDS011;68247;43.514;1.502;2023-11-21T10:20:40;6.30;;;1.70;;
78871;SDS011;68247;43.514;1.502;2023-11-21T10:23:05;6.10;;;1.90;;
78871;SDS011;68247;43.514;1.502;2023-11-21T10:25:32;5.23;;;1.70;;
78871;SDS011;68247;43.514;1.502;2023-11-21T10:27:59;4.45;;;1.35;;
78871;SDS011;68247;43.514;1.502;2023-11-21T10:30:36;5.70;;;1.60;;
78871;SDS011;68247;43.514;1.502;2023-11-21T10:33:06;3.38;;;1.50;;
78871;SDS011;68247;43.514;1.502;2023-11-21T10:35:39;6.88;;;1.90;;
78871;SDS011;68247;43.514;1.502;2023-11-21T10:38:07;4.38;;;2.08;;
78871;SDS011;68247;43.514;1.502;2023-11-21T10:40:37;5.90;;;1.80;;
78871;SDS011;68247;43.514;1.502;2023-11-21T10:43:10;4.28;;;2.00;;
78871;SDS011;68247;43.514;1.502;2023-11-21T10:45:37;4.90;;;1.98;;
78871;SDS011;68247;43.514;1.502;2023-11-21T10:48:07;5.13;;;2.00;;
78871;SDS011;68247;43.514;1.502;2023-11-21T10:50:33;4.18;;;1.25;;
78871;SDS011;68247;43.514;1.502;2023-11-21T10:53:01;5.70;;;1.13;;
78871;SDS011;68247;43.514;1.502;2023-11-21T10:55:28;4.93;;;1.70;;
78871;SDS011;68247;43.514;1.502;2023-11-21T10:57:53;5.17;;;1.50;;
78871;SDS011;68247;43.514;1.502;2023-11-21T11:00:19;3.38;;;1.50;;
78871;SDS011;68247;43.514;1.502;2023-11-21T11:02:50;4.83;;;1.40;;
78871;SDS011;68247;43.514;1.502;2023-11-21T11:05:20;4.53;;;1.60;;
78871;SDS011;68247;43.514;1.502;2023-11-21T11:07:50;5.38;;;1.60;;
78871;SDS011;68247;43.514;1.502;2023-11-21T11:10:24;4.07;;;1.70;;
78871;SDS011;68247;43.514;1.502;2023-11-21T11:12:51;4.43;;;2.03;;
78871;SDS011;68247;43.514;1.502;2023-11-21T11:15:18;5.03;;;1.63;;
78871;SDS011;68247;43.514;1.502;2023-11-21T11:17:45;5.65;;;2.08;;
78871;SDS011;68247;43.514;1.502;2023-11-21T11:20:11;6.40;;;1.88;;
78871;SDS011;68247;43.514;1.502;2023-11-21T11:22:48;6.30;;;1.73;;
78871;SDS011;68247;43.514;1.502;2023-11-21T11:25:24;5.68;;;2.17;;
78871;SDS011;68247;43.514;1.502;2023-11-21T11:38:47;7.05;;;2.10;;
78871;SDS011;68247;43.514;1.502;2023-11-21T11:41:23;6.17;;;2.13;;
78871;SDS011;68247;43.514;1.502;2023-11-21T11:43:54;8.43;;;3.70;;
78871;SDS011;68247;43.514;1.502;2023-11-21T11:46:20;5.60;;;2.73;;
78871;SDS011;68247;43.514;1.502;2023-11-21T11:48:48;6.88;;;2.38;;
78871;SDS011;68247;43.514;1.502;2023-11-21T11:51:28;6.00;;;2.00;;
78871;SDS011;68247;43.514;1.502;2023-11-21T11:53:53;6.87;;;2.00;;
78871;SDS011;68247;43.514;1.502;2023-11-21T11:56:23;5.27;;;1.77;;
78871;SDS011;68247;43.514;1.502;2023-11-21T11:58:50;3.55;;;1.60;;
78871;SDS011;68247;43.514;1.502;2023-11-21T12:01:20;4.68;;;1.58;;
78871;SDS011;68247;43.514;1.502;2023-11-21T12:06:56;5.13;;;1.67;;
78871;SDS011;68247;43.514;1.502;2023-11-21T12:09:24;4.73;;;1.83;;
78871;SDS011;68247;43.514;1.502;2023-11-21T12:11:51;6.32;;;2.15;;
78871;SDS011;68247;43.514;1.502;2023-11-21T12:14:17;6.53;;;1.85;;
78871;SDS011;68247;43.514;1.502;2023-11-21T12:16:43;7.53;;;2.63;;
78871;SDS011;68247;43.514;1.502;2023-11-21T12:19:12;4.95;;;1.60;;
78871;SDS011;68247;43.514;1.502;2023-11-21T12:21:37;8.65;;;2.10;;
78871;SDS011;68247;43.514;1.502;2023-11-21T12:24:06;5.30;;;1.70;;
78871;SDS011;68247;43.514;1.502;2023-11-21T12:26:33;4.43;;;1.80;;
78871;SDS011;68247;43.514;1.502;2023-11-21T12:28:59;3.65;;;1.70;;
78871;SDS011;68247;43.514;1.502;2023-11-21T12:31:26;3.83;;;1.90;;
78871;SDS011;68247;43.514;1.502;2023-11-21T12:33:51;3.90;;;1.80;;
78871;SDS011;68247;43.514;1.502;2023-11-21T12:36:17;4.17;;;2.03;;
78871;SDS011;68247;43.514;1.502;2023-11-21T12:38:42;4.72;;;1.92;;
78871;SDS011;68247;43.514;1.502;2023-11-21T12:41:09;3.83;;;1.73;;
78871;SDS011;68247;43.514;1.502;2023-11-21T12:43:35;3.97;;;1.75;;
78871;SDS011;68247;43.514;1.502;2023-11-21T12:46:04;4.03;;;1.57;;
78871;SDS011;68247;43.514;1.502;2023-11-21T12:48:38;3.70;;;1.45;;
78871;SDS011;68247;43.514;1.502;2023-11-21T12:51:13;3.53;;;1.42;;
78871;SDS011;68247;43.514;1.502;2023-11-21T12:53:43;4.05;;;1.40;;
78871;SDS011;68247;43.514;1.502;2023-11-21T12:56:12;3.37;;;1.20;;
78871;SDS011;68247;43.514;1.502;2023-11-21T12:58:38;3.28;;;1.33;;
78871;SDS011;68247;43.514;1.502;2023-11-21T13:01:04;5.10;;;1.70;;
78871;SDS011;68247;43.514;1.502;2023-11-21T13:03:36;4.78;;;1.42;;
78871;SDS011;68247;43.514;1.502;2023-11-21T13:06:02;3.13;;;1.30;;
78871;SDS011;68247;43.514;1.502;2023-11-21T13:08:30;3.40;;;1.52;;
78871;SDS011;68247;43.514;1.502;2023-11-21T13:10:56;3.15;;;1.63;;
78871;SDS011;68247;43.514;1.502;2023-11-21T13:13:22;4.78;;;1.77;;
78871;SDS011;68247;43.514;1.502;2023-11-21T13:15:50;3.63;;;1.80;;
78871;SDS011;68247;43.514;1.502;2023-11-21T13:18:25;5.20;;;1.85;;
78871;SDS011;68247;43.514;1.502;2023-11-21T13:20:54;4.40;;;1.92;;
78871;SDS011;68247;43.514;1.502;2023-11-21T13:23:20;5.43;;;2.00;;
78871;SDS011;68247;43.514;1.502;2023-11-21T13:25:45;5.33;;;2.23;;
78871;SDS011;68247;43.514;1.502;2023-11-21T13:28:12;4.40;;;1.90;;
78871;SDS011;68247;43.514;1.502;2023-11-21T13:30:40;4.82;;;2.28;;
78871;SDS011;68247;43.514;1.502;2023-11-21T13:33:06;4.77;;;1.90;;
78871;SDS011;68247;43.514;1.502;2023-11-21T13:35:36;4.47;;;2.03;;
78871;SDS011;68247;43.514;1.502;2023-11-21T13:38:10;4.88;;;2.40;;
78871;SDS011;68247;43.514;1.502;2023-11-21T13:40:37;6.27;;;2.57;;
78871;SDS011;68247;43.514;1.502;2023-11-21T13:43:11;5.03;;;2.00;;
78871;SDS011;68247;43.514;1.502;2023-11-21T13:45:40;4.28;;;1.90;;
78871;SDS011;68247;43.514;1.502;2023-11-21T13:48:07;4.45;;;2.33;;
78871;SDS011;68247;43.514;1.502;2023-11-21T13:50:39;4.22;;;2.30;;
78871;SDS011;68247;43.514;1.502;2023-11-21T13:53:09;3.13;;;1.90;;
78871;SDS011;68247;43.514;1.502;2023-11-21T13:55:48;8.05;;;1.95;;
78871;SDS011;68247;43.514;1.502;2023-11-21T13:58:14;3.47;;;1.80;;
78871;SDS011;68247;43.514;1.502;2023-11-21T14:00:45;4.00;;;1.60;;
78871;SDS011;68247;43.514;1.502;2023-11-21T14:03:11;5.03;;;2.00;;
78871;SDS011;68247;43.514;1.502;2023-11-21T14:05:47;6.37;;;2.33;;
78871;SDS011;68247;43.514;1.502;2023-11-21T14:08:22;5.78;;;2.15;;
78871;SDS011;68247;43.514;1.502;2023-11-21T14:10:53;4.85;;;2.10;;
78871;SDS011;68247;43.514;1.502;2023-11-21T14:13:24;4.07;;;2.20;;
78871;SDS011;68247;43.514;1.502;2023-11-21T14:15:50;6.77;;;2.20;;
78871;SDS011;68247;43.514;1.502;2023-11-21T14:18:17;5.90;;;2.42;;
78871;SDS011;68247;43.514;1.502;2023-11-21T14:20:51;6.18;;;2.75;;
78871;SDS011;68247;43.514;1.502;2023-11-21T14:23:16;5.23;;;2.67;;
78871;SDS011;68247;43.514;1.502;2023-11-21T14:25:43;5.60;;;2.45;;
78871;SDS011;68247;43.514;1.502;2023-11-21T14:28:08;6.37;;;2.57;;
78871;SDS011;68247;43.514;1.502;2023-11-21T14:30:36;4.90;;;2.83;;
78871;SDS011;68247;43.514;1.502;2023-11-21T14:33:04;4.82;;;2.17;;
78871;SDS011;68247;43.514;1.502;2023-11-21T14:35:30;4.90;;;2.30;;
78871;SDS011;68247;43.514;1.502;2023-11-21T14:37:57;6.40;;;2.30;;
78871;SDS011;68247;43.514;1.502;2023-11-21T14:40:27;6.00;;;3.50;;
78871;SDS011;68247;43.514;1.502;2023-11-21T14:42:58;5.78;;;2.80;;
78871;SDS011;68247;43.514;1.502;2023-11-21T14:45:24;6.78;;;2.60;;
78871;SDS011;68247;43.514;1.502;2023-11-21T14:47:51;4.32;;;2.55;;
78871;SDS011;68247;43.514;1.502;2023-11-21T14:50:36;4.37;;;2.20;;
78871;SDS011;68247;43.514;1.502;2023-11-21T14:53:07;6.68;;;2.72;;
78871;SDS011;68247;43.514;1.502;2023-11-21T14:55:37;5.82;;;2.50;;
78871;SDS011;68247;43.514;1.502;2023-11-21T14:58:16;5.28;;;2.47;;
78871;SDS011;68247;43.514;1.502;2023-11-21T15:00:51;5.95;;;2.65;;